sensor_id;sensor_type;location;lat;lon;timestamp;temperature;humidity
74178;DHT22;62540;48.456;-4.456;2023-04-06T00:01:07;13.07;76.12
74178;DHT22;62540;48.456;-4.456;2023-04-06T00:03:33;13.04;76.24
74178;DHT22;62540;48.456;-4.456;2023-04-06T00:05:59;13.06;76.25
74178;DHT22;62540;48.456;-4.456;2023-04-06T00:08:26;13.04;76.33
74178;DHT22;62540;48.456;-4.456;2023-04-06T00:10:51;13.04;76.39
74178;DHT22;62540;48.456;-4.456;2023-04-06T00:13:16;13.09;76.31
74178;DHT22;62540;48.456;-4.456;2023-04-06T00:15:42;13.09;75.90
74178;DHT22;62540;48.456;-4.456;2023-04-06T00:18:07;13.13;75.92
74178;DHT22;62540;48.456;-4.456;2023-04-06T00:20:33;13.13;76.49
74178;DHT22;62540;48.456;-4.456;2023-04-06T00:22:58;13.11;76.01
74178;DHT22;62540;48.456;-4.456;2023-04-06T00:25:24;13.13;76.41
74178;DHT22;62540;48.456;-4.456;2023-04-06T00:27:49;13.14;76.23
74178;DHT22;62540;48.456;-4.456;2023-04-06T00:30:15;13.14;76.41
74178;DHT22;62540;48.456;-4.456;2023-04-06T00:32:40;13.16;76.24
74178;DHT22;62540;48.456;-4.456;2023-04-06T00:35:06;13.19;76.33
74178;DHT22;62540;48.456;-4.456;2023-04-06T00:37:32;13.21;76.38
74178;DHT22;62540;48.456;-4.456;2023-04-06T00:39:58;13.21;76.21
74178;DHT22;62540;48.456;-4.456;2023-04-06T00:42:24;13.26;75.84
74178;DHT22;62540;48.456;-4.456;2023-04-06T00:44:58;13.27;75.89
74178;DHT22;62540;48.456;-4.456;2023-04-06T00:47:24;13.27;76.59
74178;DHT22;62540;48.456;-4.456;2023-04-06T00:49:51;13.27;76.21
74178;DHT22;62540;48.456;-4.456;2023-04-06T00:52:16;13.31;76.00
74178;DHT22;62540;48.456;-4.456;2023-04-06T00:54:42;13.33;76.11
74178;DHT22;62540;48.456;-4.456;2023-04-06T00:57:08;13.34;76.19
74178;DHT22;62540;48.456;-4.456;2023-04-06T00:59:33;13.31;76.58
74178;DHT22;62540;48.456;-4.456;2023-04-06T01:01:59;13.30;76.60
74178;DHT22;62540;48.456;-4.456;2023-04-06T01:04:24;13.27;76.73
74178;DHT22;62540;48.456;-4.456;2023-04-06T01:06:50;13.28;76.73
74178;DHT22;62540;48.456;-4.456;2023-04-06T01:09:16;13.31;77.13
74178;DHT22;62540;48.456;-4.456;2023-04-06T01:11:42;13.28;76.98
74178;DHT22;62540;48.456;-4.456;2023-04-06T01:14:08;13.27;77.28
74178;DHT22;62540;48.456;-4.456;2023-04-06T01:16:34;13.26;77.22
74178;DHT22;62540;48.456;-4.456;2023-04-06T01:18:59;13.27;76.98
74178;DHT22;62540;48.456;-4.456;2023-04-06T01:21:25;13.28;76.96
74178;DHT22;62540;48.456;-4.456;2023-04-06T01:23:50;13.27;77.22
74178;DHT22;62540;48.456;-4.456;2023-04-06T01:26:16;13.30;76.98
74178;DHT22;62540;48.456;-4.456;2023-04-06T01:28:41;13.33;76.78
74178;DHT22;62540;48.456;-4.456;2023-04-06T01:31:08;13.33;77.34
74178;DHT22;62540;48.456;-4.456;2023-04-06T01:33:33;13.31;77.31
74178;DHT22;62540;48.456;-4.456;2023-04-06T01:35:59;13.34;77.46
74178;DHT22;62540;48.456;-4.456;2023-04-06T01:38:25;13.31;77.75
74178;DHT22;62540;48.456;-4.456;2023-04-06T01:40:52;13.36;77.18
74178;DHT22;62540;48.456;-4.456;2023-04-06T01:43:17;13.39;77.04
74178;DHT22;62540;48.456;-4.456;2023-04-06T01:45:43;13.44;77.03
74178;DHT22;62540;48.456;-4.456;2023-04-06T01:48:08;13.47;76.86
74178;DHT22;62540;48.456;-4.456;2023-04-06T01:50:33;13.47;77.42
74178;DHT22;62540;48.456;-4.456;2023-04-06T01:52:59;13.47;77.03
74178;DHT22;62540;48.456;-4.456;2023-04-06T01:55:25;13.48;76.87
74178;DHT22;62540;48.456;-4.456;2023-04-06T01:57:50;13.47;77.06
74178;DHT22;62540;48.456;-4.456;2023-04-06T02:00:16;13.48;77.46
74178;DHT22;62540;48.456;-4.456;2023-04-06T02:02:41;13.46;77.00
74178;DHT22;62540;48.456;-4.456;2023-04-06T02:05:08;13.44;77.26
74178;DHT22;62540;48.456;-4.456;2023-04-06T02:07:33;13.50;77.15
74178;DHT22;62540;48.456;-4.456;2023-04-06T02:09:58;13.44;77.67
74178;DHT22;62540;48.456;-4.456;2023-04-06T02:12:24;13.43;78.25
74178;DHT22;62540;48.456;-4.456;2023-04-06T02:14:50;13.43;78.02
74178;DHT22;62540;48.456;-4.456;2023-04-06T02:17:15;13.47;78.17
74178;DHT22;62540;48.456;-4.456;2023-04-06T02:19:40;13.43;77.88
74178;DHT22;62540;48.456;-4.456;2023-04-06T02:22:06;13.47;78.10
74178;DHT22;62540;48.456;-4.456;2023-04-06T02:24:32;13.48;78.07
74178;DHT22;62540;48.456;-4.456;2023-04-06T02:26:57;13.48;78.12
74178;DHT22;62540;48.456;-4.456;2023-04-06T02:29:22;13.48;78.05
74178;DHT22;62540;48.456;-4.456;2023-04-06T02:31:48;13.46;78.63
74178;DHT22;62540;48.456;-4.456;2023-04-06T02:34:13;13.47;78.17
74178;DHT22;62540;48.456;-4.456;2023-04-06T02:36:46;13.51;78.08
74178;DHT22;62540;48.456;-4.456;2023-04-06T02:39:12;13.50;78.15
74178;DHT22;62540;48.456;-4.456;2023-04-06T02:41:38;13.50;78.40
74178;DHT22;62540;48.456;-4.456;2023-04-06T02:44:05;13.51;78.12
74178;DHT22;62540;48.456;-4.456;2023-04-06T02:46:31;13.54;78.32
74178;DHT22;62540;48.456;-4.456;2023-04-06T02:48:56;13.57;77.97
74178;DHT22;62540;48.456;-4.456;2023-04-06T02:51:21;13.58;78.08
74178;DHT22;62540;48.456;-4.456;2023-04-06T02:53:47;13.58;77.91
74178;DHT22;62540;48.456;-4.456;2023-04-06T02:56:12;13.55;78.34
74178;DHT22;62540;48.456;-4.456;2023-04-06T02:58:38;13.57;78.01
74178;DHT22;62540;48.456;-4.456;2023-04-06T03:01:03;13.60;78.18
74178;DHT22;62540;48.456;-4.456;2023-04-06T03:03:29;13.64;77.78
74178;DHT22;62540;48.456;-4.456;2023-04-06T03:05:55;13.67;77.75
74178;DHT22;62540;48.456;-4.456;2023-04-06T03:08:23;13.67;77.81
74178;DHT22;62540;48.456;-4.456;2023-04-06T03:10:49;13.65;77.74
74178;DHT22;62540;48.456;-4.456;2023-04-06T03:13:15;13.71;77.49
74178;DHT22;62540;48.456;-4.456;2023-04-06T03:15:40;13.75;77.34
74178;DHT22;62540;48.456;-4.456;2023-04-06T03:18:06;13.77;77.28
74178;DHT22;62540;48.456;-4.456;2023-04-06T03:20:31;13.78;77.25
74178;DHT22;62540;48.456;-4.456;2023-04-06T03:22:56;13.78;77.21
74178;DHT22;62540;48.456;-4.456;2023-04-06T03:25:22;13.81;77.36
74178;DHT22;62540;48.456;-4.456;2023-04-06T03:27:47;13.75;77.77
74178;DHT22;62540;48.456;-4.456;2023-04-06T03:30:13;13.78;77.50
74178;DHT22;62540;48.456;-4.456;2023-04-06T03:32:38;13.83;77.42
74178;DHT22;62540;48.456;-4.456;2023-04-06T03:35:04;13.77;77.73
74178;DHT22;62540;48.456;-4.456;2023-04-06T03:37:30;13.69;77.31
74178;DHT22;62540;48.456;-4.456;2023-04-06T03:39:55;13.64;76.73
74178;DHT22;62540;48.456;-4.456;2023-04-06T03:42:20;13.64;76.53
74178;DHT22;62540;48.456;-4.456;2023-04-06T03:44:46;13.61;76.27
74178;DHT22;62540;48.456;-4.456;2023-04-06T03:47:11;13.55;76.39
74178;DHT22;62540;48.456;-4.456;2023-04-06T03:49:37;13.57;76.35
74178;DHT22;62540;48.456;-4.456;2023-04-06T03:52:02;13.55;76.24
74178;DHT22;62540;48.456;-4.456;2023-04-06T03:54:27;13.58;76.16
74178;DHT22;62540;48.456;-4.456;2023-04-06T03:56:53;13.58;76.04
74178;DHT22;62540;48.456;-4.456;2023-04-06T03:59:18;13.60;75.95
74178;DHT22;62540;48.456;-4.456;2023-04-06T04:01:44;13.65;75.92
74178;DHT22;62540;48.456;-4.456;2023-04-06T04:04:10;13.69;75.70
74178;DHT22;62540;48.456;-4.456;2023-04-06T04:06:35;13.69;75.58
74178;DHT22;62540;48.456;-4.456;2023-04-06T04:09:01;13.74;75.51
74178;DHT22;62540;48.456;-4.456;2023-04-06T04:11:27;13.78;75.35
74178;DHT22;62540;48.456;-4.456;2023-04-06T04:13:53;13.78;75.26
74178;DHT22;62540;48.456;-4.456;2023-04-06T04:16:18;13.82;75.28
74178;DHT22;62540;48.456;-4.456;2023-04-06T04:18:44;13.88;75.19
74178;DHT22;62540;48.456;-4.456;2023-04-06T04:21:10;13.88;75.04
74178;DHT22;62540;48.456;-4.456;2023-04-06T04:23:36;13.90;74.93
74178;DHT22;62540;48.456;-4.456;2023-04-06T04:26:01;13.92;74.84
74178;DHT22;62540;48.456;-4.456;2023-04-06T04:28:27;13.95;74.64
74178;DHT22;62540;48.456;-4.456;2023-04-06T04:30:52;13.95;74.63
74178;DHT22;62540;48.456;-4.456;2023-04-06T04:33:18;13.95;74.58
74178;DHT22;62540;48.456;-4.456;2023-04-06T04:35:43;13.97;74.56
74178;DHT22;62540;48.456;-4.456;2023-04-06T04:38:09;13.94;74.56
74178;DHT22;62540;48.456;-4.456;2023-04-06T04:40:34;13.97;74.54
74178;DHT22;62540;48.456;-4.456;2023-04-06T04:42:59;13.98;74.48
74178;DHT22;62540;48.456;-4.456;2023-04-06T04:45:25;13.98;74.41
74178;DHT22;62540;48.456;-4.456;2023-04-06T04:47:50;13.92;74.40
74178;DHT22;62540;48.456;-4.456;2023-04-06T04:50:16;13.92;74.44
74178;DHT22;62540;48.456;-4.456;2023-04-06T04:52:41;13.92;74.39
74178;DHT22;62540;48.456;-4.456;2023-04-06T04:55:07;13.95;74.35
74178;DHT22;62540;48.456;-4.456;2023-04-06T04:57:32;13.94;74.24
74178;DHT22;62540;48.456;-4.456;2023-04-06T04:59:58;13.95;74.27
74178;DHT22;62540;48.456;-4.456;2023-04-06T05:02:23;13.95;74.23
74178;DHT22;62540;48.456;-4.456;2023-04-06T05:04:48;13.94;74.18
74178;DHT22;62540;48.456;-4.456;2023-04-06T05:07:14;13.90;74.16
74178;DHT22;62540;48.456;-4.456;2023-04-06T05:09:40;13.88;74.31
74178;DHT22;62540;48.456;-4.456;2023-04-06T05:12:06;13.88;74.45
74178;DHT22;62540;48.456;-4.456;2023-04-06T05:14:32;13.90;74.45
74178;DHT22;62540;48.456;-4.456;2023-04-06T05:16:57;13.86;74.45
74178;DHT22;62540;48.456;-4.456;2023-04-06T05:19:23;13.88;74.43
74178;DHT22;62540;48.456;-4.456;2023-04-06T05:21:48;13.88;74.39
74178;DHT22;62540;48.456;-4.456;2023-04-06T05:24:14;13.83;74.42
74178;DHT22;62540;48.456;-4.456;2023-04-06T05:26:39;13.79;74.53
74178;DHT22;62540;48.456;-4.456;2023-04-06T05:29:05;13.82;74.61
74178;DHT22;62540;48.456;-4.456;2023-04-06T05:31:31;13.81;74.74
74178;DHT22;62540;48.456;-4.456;2023-04-06T05:33:56;13.82;74.74
74178;DHT22;62540;48.456;-4.456;2023-04-06T05:36:22;13.82;74.74
74178;DHT22;62540;48.456;-4.456;2023-04-06T05:38:47;13.79;74.81
74178;DHT22;62540;48.456;-4.456;2023-04-06T05:41:13;13.81;74.78
74178;DHT22;62540;48.456;-4.456;2023-04-06T05:43:38;13.81;74.80
74178;DHT22;62540;48.456;-4.456;2023-04-06T05:46:04;13.83;74.79
74178;DHT22;62540;48.456;-4.456;2023-04-06T05:48:29;13.88;74.66
74178;DHT22;62540;48.456;-4.456;2023-04-06T05:50:55;13.88;74.56
74178;DHT22;62540;48.456;-4.456;2023-04-06T05:53:20;13.83;74.76
74178;DHT22;62540;48.456;-4.456;2023-04-06T05:55:46;13.81;74.85
74178;DHT22;62540;48.456;-4.456;2023-04-06T05:58:12;13.83;74.78
74178;DHT22;62540;48.456;-4.456;2023-04-06T06:00:37;13.82;74.74
74178;DHT22;62540;48.456;-4.456;2023-04-06T06:03:03;13.77;74.27
74178;DHT22;62540;48.456;-4.456;2023-04-06T06:05:31;13.68;73.77
74178;DHT22;62540;48.456;-4.456;2023-04-06T06:07:56;13.68;73.96
74178;DHT22;62540;48.456;-4.456;2023-04-06T06:10:22;13.72;73.96
74178;DHT22;62540;48.456;-4.456;2023-04-06T06:12:47;13.68;73.81
74178;DHT22;62540;48.456;-4.456;2023-04-06T06:15:13;13.69;74.00
74178;DHT22;62540;48.456;-4.456;2023-04-06T06:17:38;13.71;73.98
74178;DHT22;62540;48.456;-4.456;2023-04-06T06:20:08;13.71;74.12
74178;DHT22;62540;48.456;-4.456;2023-04-06T06:22:34;13.71;74.14
74178;DHT22;62540;48.456;-4.456;2023-04-06T06:24:59;13.79;74.17
74178;DHT22;62540;48.456;-4.456;2023-04-06T06:27:25;13.79;74.21
74178;DHT22;62540;48.456;-4.456;2023-04-06T06:29:51;13.82;74.16
74178;DHT22;62540;48.456;-4.456;2023-04-06T06:32:16;13.88;74.04
74178;DHT22;62540;48.456;-4.456;2023-04-06T06:34:42;13.89;74.00
74178;DHT22;62540;48.456;-4.456;2023-04-06T06:37:07;13.92;73.98
74178;DHT22;62540;48.456;-4.456;2023-04-06T06:39:33;13.97;73.96
74178;DHT22;62540;48.456;-4.456;2023-04-06T06:41:58;13.99;73.93
74178;DHT22;62540;48.456;-4.456;2023-04-06T06:44:26;13.99;73.89
74178;DHT22;62540;48.456;-4.456;2023-04-06T06:46:52;14.02;73.90
74178;DHT22;62540;48.456;-4.456;2023-04-06T06:49:17;14.06;73.72
74178;DHT22;62540;48.456;-4.456;2023-04-06T06:51:44;14.10;73.74
74178;DHT22;62540;48.456;-4.456;2023-04-06T06:54:10;14.09;73.72
74178;DHT22;62540;48.456;-4.456;2023-04-06T06:56:36;14.15;73.79
74178;DHT22;62540;48.456;-4.456;2023-04-06T06:59:03;14.15;73.68
74178;DHT22;62540;48.456;-4.456;2023-04-06T07:01:29;14.16;73.75
74178;DHT22;62540;48.456;-4.456;2023-04-06T07:03:54;14.18;73.73
74178;DHT22;62540;48.456;-4.456;2023-04-06T07:06:20;14.15;73.72
74178;DHT22;62540;48.456;-4.456;2023-04-06T07:08:46;14.16;73.82
74178;DHT22;62540;48.456;-4.456;2023-04-06T07:11:11;14.13;73.69
74178;DHT22;62540;48.456;-4.456;2023-04-06T07:13:37;14.19;73.74
74178;DHT22;62540;48.456;-4.456;2023-04-06T07:16:02;14.26;73.75
74178;DHT22;62540;48.456;-4.456;2023-04-06T07:18:28;14.30;73.62
74178;DHT22;62540;48.456;-4.456;2023-04-06T07:20:55;14.30;73.61
74178;DHT22;62540;48.456;-4.456;2023-04-06T07:23:21;14.32;73.68
74178;DHT22;62540;48.456;-4.456;2023-04-06T07:25:46;14.26;73.60
74178;DHT22;62540;48.456;-4.456;2023-04-06T07:28:12;14.27;73.53
74178;DHT22;62540;48.456;-4.456;2023-04-06T07:30:37;14.27;73.52
74178;DHT22;62540;48.456;-4.456;2023-04-06T07:33:03;14.32;73.46
74178;DHT22;62540;48.456;-4.456;2023-04-06T07:35:29;14.33;73.48
74178;DHT22;62540;48.456;-4.456;2023-04-06T07:37:55;14.25;73.78
74178;DHT22;62540;48.456;-4.456;2023-04-06T07:40:21;14.22;73.98
74178;DHT22;62540;48.456;-4.456;2023-04-06T07:42:47;14.22;74.39
74178;DHT22;62540;48.456;-4.456;2023-04-06T07:45:12;14.22;74.45
74178;DHT22;62540;48.456;-4.456;2023-04-06T07:47:38;14.25;74.69
74178;DHT22;62540;48.456;-4.456;2023-04-06T07:50:04;14.30;74.77
74178;DHT22;62540;48.456;-4.456;2023-04-06T07:52:30;14.39;74.87
74178;DHT22;62540;48.456;-4.456;2023-04-06T07:54:57;14.44;74.60
74178;DHT22;62540;48.456;-4.456;2023-04-06T07:57:23;14.56;74.38
74178;DHT22;62540;48.456;-4.456;2023-04-06T07:59:48;14.61;74.31
74178;DHT22;62540;48.456;-4.456;2023-04-06T08:02:13;14.77;73.98
74178;DHT22;62540;48.456;-4.456;2023-04-06T08:04:39;15.02;73.75
74178;DHT22;62540;48.456;-4.456;2023-04-06T08:07:05;15.18;72.77
74178;DHT22;62540;48.456;-4.456;2023-04-06T08:09:30;15.32;72.92
74178;DHT22;62540;48.456;-4.456;2023-04-06T08:11:56;15.40;72.06
74178;DHT22;62540;48.456;-4.456;2023-04-06T08:14:22;15.46;71.68
74178;DHT22;62540;48.456;-4.456;2023-04-06T08:16:47;15.45;70.99
74178;DHT22;62540;48.456;-4.456;2023-04-06T08:19:13;15.56;71.47
74178;DHT22;62540;48.456;-4.456;2023-04-06T08:21:38;15.54;71.34
74178;DHT22;62540;48.456;-4.456;2023-04-06T08:24:07;15.76;71.27
74178;DHT22;62540;48.456;-4.456;2023-04-06T08:26:33;15.84;70.78
74178;DHT22;62540;48.456;-4.456;2023-04-06T08:28:58;15.96;69.45
74178;DHT22;62540;48.456;-4.456;2023-04-06T08:31:23;16.32;69.64
74178;DHT22;62540;48.456;-4.456;2023-04-06T08:33:49;16.35;69.60
74178;DHT22;62540;48.456;-4.456;2023-04-06T08:36:15;16.40;68.56
74178;DHT22;62540;48.456;-4.456;2023-04-06T08:38:42;16.33;68.66
74178;DHT22;62540;48.456;-4.456;2023-04-06T08:41:12;16.77;68.39
74178;DHT22;62540;48.456;-4.456;2023-04-06T08:43:43;16.97;67.13
74178;DHT22;62540;48.456;-4.456;2023-04-06T08:46:10;17.35;66.20
74178;DHT22;62540;48.456;-4.456;2023-04-06T08:48:37;17.68;65.71
74178;DHT22;62540;48.456;-4.456;2023-04-06T08:51:03;18.14;65.85
74178;DHT22;62540;48.456;-4.456;2023-04-06T08:53:29;18.51;63.64
74178;DHT22;62540;48.456;-4.456;2023-04-06T08:55:56;18.63;63.96
74178;DHT22;62540;48.456;-4.456;2023-04-06T08:58:24;18.75;61.96
74178;DHT22;62540;48.456;-4.456;2023-04-06T09:00:51;18.98;62.06
74178;DHT22;62540;48.456;-4.456;2023-04-06T09:03:18;19.15;62.85
74178;DHT22;62540;48.456;-4.456;2023-04-06T09:05:46;19.39;59.84
74178;DHT22;62540;48.456;-4.456;2023-04-06T09:08:12;19.64;61.35
74178;DHT22;62540;48.456;-4.456;2023-04-06T09:10:40;19.78;59.88
74178;DHT22;62540;48.456;-4.456;2023-04-06T09:13:07;19.69;60.72
74178;DHT22;62540;48.456;-4.456;2023-04-06T09:15:34;19.39;60.12
74178;DHT22;62540;48.456;-4.456;2023-04-06T09:17:59;19.08;58.63
74178;DHT22;62540;48.456;-4.456;2023-04-06T09:20:25;19.19;60.81
74178;DHT22;62540;48.456;-4.456;2023-04-06T09:22:52;19.54;59.54
74178;DHT22;62540;48.456;-4.456;2023-04-06T09:25:19;19.84;59.49
74178;DHT22;62540;48.456;-4.456;2023-04-06T09:27:46;20.04;57.79
74178;DHT22;62540;48.456;-4.456;2023-04-06T09:30:12;20.22;56.19
74178;DHT22;62540;48.456;-4.456;2023-04-06T09:32:49;20.10;55.54
74178;DHT22;62540;48.456;-4.456;2023-04-06T09:35:15;20.25;55.74
74178;DHT22;62540;48.456;-4.456;2023-04-06T09:37:42;20.55;56.48
74178;DHT22;62540;48.456;-4.456;2023-04-06T09:40:08;20.84;55.85
74178;DHT22;62540;48.456;-4.456;2023-04-06T09:42:35;20.89;55.54
74178;DHT22;62540;48.456;-4.456;2023-04-06T09:45:02;20.76;54.86
74178;DHT22;62540;48.456;-4.456;2023-04-06T09:47:28;20.91;55.66
74178;DHT22;62540;48.456;-4.456;2023-04-06T09:49:59;20.99;53.72
74178;DHT22;62540;48.456;-4.456;2023-04-06T09:52:32;21.15;55.64
74178;DHT22;62540;48.456;-4.456;2023-04-06T09:55:03;21.24;56.39
74178;DHT22;62540;48.456;-4.456;2023-04-06T09:57:32;21.04;54.41
74178;DHT22;62540;48.456;-4.456;2023-04-06T10:00:07;20.87;54.75
74178;DHT22;62540;48.456;-4.456;2023-04-06T10:02:39;21.11;52.04
74178;DHT22;62540;48.456;-4.456;2023-04-06T10:05:12;21.00;51.24
74178;DHT22;62540;48.456;-4.456;2023-04-06T10:07:39;21.35;52.45
74178;DHT22;62540;48.456;-4.456;2023-04-06T10:10:05;21.76;53.93
74178;DHT22;62540;48.456;-4.456;2023-04-06T10:12:32;21.90;52.97
74178;DHT22;62540;48.456;-4.456;2023-04-06T10:14:57;21.69;50.95
74178;DHT22;62540;48.456;-4.456;2023-04-06T10:17:23;21.51;52.64
74178;DHT22;62540;48.456;-4.456;2023-04-06T10:19:50;21.69;53.85
74178;DHT22;62540;48.456;-4.456;2023-04-06T10:22:38;21.95;52.36
74178;DHT22;62540;48.456;-4.456;2023-04-06T10:25:08;22.20;50.80
74178;DHT22;62540;48.456;-4.456;2023-04-06T10:27:33;22.18;50.09
74178;DHT22;62540;48.456;-4.456;2023-04-06T10:30:07;21.88;50.17
74178;DHT22;62540;48.456;-4.456;2023-04-06T10:32:33;21.37;48.69
74178;DHT22;62540;48.456;-4.456;2023-04-06T10:35:08;21.11;50.86
74178;DHT22;62540;48.456;-4.456;2023-04-06T10:38:00;21.52;51.55
74178;DHT22;62540;48.456;-4.456;2023-04-06T10:40:26;21.71;51.15
74178;DHT22;62540;48.456;-4.456;2023-04-06T10:42:53;21.37;49.03
74178;DHT22;62540;48.456;-4.456;2023-04-06T10:45:23;20.79;50.69
74178;DHT22;62540;48.456;-4.456;2023-04-06T10:47:52;20.66;51.73
74178;DHT22;62540;48.456;-4.456;2023-04-06T10:50:18;20.94;51.60
74178;DHT22;62540;48.456;-4.456;2023-04-06T10:52:45;21.41;51.26
74178;DHT22;62540;48.456;-4.456;2023-04-06T10:55:12;21.74;48.57
74178;DHT22;62540;48.456;-4.456;2023-04-06T10:57:38;22.09;50.34
74178;DHT22;62540;48.456;-4.456;2023-04-06T11:00:05;22.17;49.03
74178;DHT22;62540;48.456;-4.456;2023-04-06T11:02:30;21.93;46.86
74178;DHT22;62540;48.456;-4.456;2023-04-06T11:04:57;21.79;47.98
74178;DHT22;62540;48.456;-4.456;2023-04-06T11:07:24;22.12;47.50
74178;DHT22;62540;48.456;-4.456;2023-04-06T11:09:50;22.47;47.71
74178;DHT22;62540;48.456;-4.456;2023-04-06T11:12:23;22.60;48.02
74178;DHT22;62540;48.456;-4.456;2023-04-06T11:15:08;22.43;46.61
74178;DHT22;62540;48.456;-4.456;2023-04-06T11:17:36;22.41;47.88
74178;DHT22;62540;48.456;-4.456;2023-04-06T11:20:03;22.09;46.85
74178;DHT22;62540;48.456;-4.456;2023-04-06T11:22:30;22.17;47.91
74178;DHT22;62540;48.456;-4.456;2023-04-06T11:25:06;22.18;45.76
74178;DHT22;62540;48.456;-4.456;2023-04-06T11:27:33;21.99;46.10
74178;DHT22;62540;48.456;-4.456;2023-04-06T11:29:59;21.75;46.43
74178;DHT22;62540;48.456;-4.456;2023-04-06T11:32:25;21.49;47.16
74178;DHT22;62540;48.456;-4.456;2023-04-06T11:34:51;21.24;45.85
74178;DHT22;62540;48.456;-4.456;2023-04-06T11:37:16;21.17;45.39
74178;DHT22;62540;48.456;-4.456;2023-04-06T11:39:50;21.04;46.66
74178;DHT22;62540;48.456;-4.456;2023-04-06T11:42:28;20.84;45.94
74178;DHT22;62540;48.456;-4.456;2023-04-06T11:44:56;20.83;46.35
74178;DHT22;62540;48.456;-4.456;2023-04-06T11:47:34;21.20;47.40
74178;DHT22;62540;48.456;-4.456;2023-04-06T11:50:10;21.62;47.28
74178;DHT22;62540;48.456;-4.456;2023-04-06T11:52:36;21.78;46.19
74178;DHT22;62540;48.456;-4.456;2023-04-06T11:55:17;21.49;44.81
74178;DHT22;62540;48.456;-4.456;2023-04-06T11:57:43;21.26;45.91
74178;DHT22;62540;48.456;-4.456;2023-04-06T12:00:10;21.06;46.17
74178;DHT22;62540;48.456;-4.456;2023-04-06T12:02:37;20.94;47.69
74178;DHT22;62540;48.456;-4.456;2023-04-06T12:05:03;20.93;47.97
74178;DHT22;62540;48.456;-4.456;2023-04-06T12:07:29;21.10;46.75
74178;DHT22;62540;48.456;-4.456;2023-04-06T12:09:55;21.14;46.41
74178;DHT22;62540;48.456;-4.456;2023-04-06T12:12:21;21.18;47.42
74178;DHT22;62540;48.456;-4.456;2023-04-06T12:14:46;21.42;47.05
74178;DHT22;62540;48.456;-4.456;2023-04-06T12:17:11;21.48;47.57
74178;DHT22;62540;48.456;-4.456;2023-04-06T12:19:37;21.32;46.52
74178;DHT22;62540;48.456;-4.456;2023-04-06T12:22:02;21.04;47.23
74178;DHT22;62540;48.456;-4.456;2023-04-06T12:24:28;20.99;47.62
74178;DHT22;62540;48.456;-4.456;2023-04-06T12:26:54;21.12;48.83
74178;DHT22;62540;48.456;-4.456;2023-04-06T12:29:19;21.30;47.78
74178;DHT22;62540;48.456;-4.456;2023-04-06T12:31:45;21.51;48.65
74178;DHT22;62540;48.456;-4.456;2023-04-06T12:34:11;21.86;48.61
74178;DHT22;62540;48.456;-4.456;2023-04-06T12:36:37;22.20;45.88
74178;DHT22;62540;48.456;-4.456;2023-04-06T12:39:03;22.26;47.03
74178;DHT22;62540;48.456;-4.456;2023-04-06T12:41:29;22.09;44.73
74178;DHT22;62540;48.456;-4.456;2023-04-06T12:43:55;21.86;44.30
74178;DHT22;62540;48.456;-4.456;2023-04-06T12:46:21;21.76;45.03
74178;DHT22;62540;48.456;-4.456;2023-04-06T12:48:46;21.95;44.96
74178;DHT22;62540;48.456;-4.456;2023-04-06T12:51:12;21.99;43.72
74178;DHT22;62540;48.456;-4.456;2023-04-06T12:53:37;21.97;44.55
74178;DHT22;62540;48.456;-4.456;2023-04-06T12:56:11;22.14;46.41
74178;DHT22;62540;48.456;-4.456;2023-04-06T12:58:37;22.18;44.15
74178;DHT22;62540;48.456;-4.456;2023-04-06T13:01:06;22.44;44.74
74178;DHT22;62540;48.456;-4.456;2023-04-06T13:03:32;22.78;45.14
74178;DHT22;62540;48.456;-4.456;2023-04-06T13:05:59;23.01;43.59
74178;DHT22;62540;48.456;-4.456;2023-04-06T13:08:25;22.87;41.58
74178;DHT22;62540;48.456;-4.456;2023-04-06T13:10:52;22.74;43.25
74178;DHT22;62540;48.456;-4.456;2023-04-06T13:13:28;22.26;43.26
74178;DHT22;62540;48.456;-4.456;2023-04-06T13:15:59;22.14;44.11
74178;DHT22;62540;48.456;-4.456;2023-04-06T13:18:26;22.06;43.77
74178;DHT22;62540;48.456;-4.456;2023-04-06T13:20:51;22.03;43.21
74178;DHT22;62540;48.456;-4.456;2023-04-06T13:23:17;22.02;43.45
74178;DHT22;62540;48.456;-4.456;2023-04-06T13:25:42;22.12;42.81
74178;DHT22;62540;48.456;-4.456;2023-04-06T13:28:08;22.16;43.00
74178;DHT22;62540;48.456;-4.456;2023-04-06T13:30:35;22.13;42.79
74178;DHT22;62540;48.456;-4.456;2023-04-06T13:33:01;21.92;43.22
74178;DHT22;62540;48.456;-4.456;2023-04-06T13:35:26;21.89;42.09
74178;DHT22;62540;48.456;-4.456;2023-04-06T13:37:51;21.92;43.04
74178;DHT22;62540;48.456;-4.456;2023-04-06T13:40:17;21.90;42.25
74178;DHT22;62540;48.456;-4.456;2023-04-06T13:42:43;21.78;42.18
74178;DHT22;62540;48.456;-4.456;2023-04-06T13:45:10;21.62;42.77
74178;DHT22;62540;48.456;-4.456;2023-04-06T13:47:36;21.48;43.82
74178;DHT22;62540;48.456;-4.456;2023-04-06T13:50:01;21.39;44.00
74178;DHT22;62540;48.456;-4.456;2023-04-06T13:52:27;21.17;44.21
74178;DHT22;62540;48.456;-4.456;2023-04-06T13:54:53;20.93;44.70
74178;DHT22;62540;48.456;-4.456;2023-04-06T13:57:18;20.72;45.70
74178;DHT22;62540;48.456;-4.456;2023-04-06T13:59:44;20.72;46.43
74178;DHT22;62540;48.456;-4.456;2023-04-06T14:02:10;20.72;46.66
74178;DHT22;62540;48.456;-4.456;2023-04-06T14:04:36;20.65;47.16
74178;DHT22;62540;48.456;-4.456;2023-04-06T14:07:02;20.59;46.76
74178;DHT22;62540;48.456;-4.456;2023-04-06T14:09:29;20.56;47.61
74178;DHT22;62540;48.456;-4.456;2023-04-06T14:11:55;20.42;48.13
74178;DHT22;62540;48.456;-4.456;2023-04-06T14:14:21;20.20;47.89
74178;DHT22;62540;48.456;-4.456;2023-04-06T14:16:47;19.98;48.92
74178;DHT22;62540;48.456;-4.456;2023-04-06T14:19:14;19.97;49.89
74178;DHT22;62540;48.456;-4.456;2023-04-06T14:21:41;20.04;50.52
74178;DHT22;62540;48.456;-4.456;2023-04-06T14:24:07;20.20;48.82
74178;DHT22;62540;48.456;-4.456;2023-04-06T14:26:34;20.20;49.24
74178;DHT22;62540;48.456;-4.456;2023-04-06T14:29:00;20.15;48.45
74178;DHT22;62540;48.456;-4.456;2023-04-06T14:31:26;20.20;49.24
74178;DHT22;62540;48.456;-4.456;2023-04-06T14:33:52;20.22;48.47
74178;DHT22;62540;48.456;-4.456;2023-04-06T14:36:17;20.15;48.08
74178;DHT22;62540;48.456;-4.456;2023-04-06T14:38:45;20.10;48.74
74178;DHT22;62540;48.456;-4.456;2023-04-06T14:41:22;20.11;49.05
74178;DHT22;62540;48.456;-4.456;2023-04-06T14:43:48;20.08;49.46
74178;DHT22;62540;48.456;-4.456;2023-04-06T14:46:14;20.07;48.10
74178;DHT22;62540;48.456;-4.456;2023-04-06T14:48:41;19.98;48.17
74178;DHT22;62540;48.456;-4.456;2023-04-06T14:51:06;19.90;48.79
74178;DHT22;62540;48.456;-4.456;2023-04-06T14:53:32;19.91;49.42
74178;DHT22;62540;48.456;-4.456;2023-04-06T14:55:58;20.04;49.14
74178;DHT22;62540;48.456;-4.456;2023-04-06T14:58:24;20.17;49.47
74178;DHT22;62540;48.456;-4.456;2023-04-06T15:00:58;20.29;48.48
74178;DHT22;62540;48.456;-4.456;2023-04-06T15:03:25;20.20;48.47
74178;DHT22;62540;48.456;-4.456;2023-04-06T15:05:51;20.10;48.54
74178;DHT22;62540;48.456;-4.456;2023-04-06T15:08:17;20.00;48.92
74178;DHT22;62540;48.456;-4.456;2023-04-06T15:10:46;20.08;49.09